Time;durP1;ratioP1;P1;durP2;ratioP2;P2;SDS_P1;SDS_P2;PMS_P1;PMS_P2;Temp;Humidity;BMP_temperature;BMP_pressure;BME280_temperature;BME280_humidity;BME280_pressure;Samples;Min_cycle;Max_cycle;Signal;HPM_P1;HPM_P2
2022/08/31 00:04:00;;;;;;;;;;;19.90;97.00;;;;;;4989397;28;20205;-86
2022/08/31 00:06:25;;;;;;;;;;;19.90;97.10;;;;;;4996904;28;19924;-86
2022/08/31 00:08:51;;;;;;;;;;;19.90;97.40;;;;;;5001156;28;19918;-85
2022/08/31 00:11:26;;;;;;;;;;;19.90;97.50;;;;;;5002545;28;20306;-87
2022/08/31 00:13:52;;;;;;;;;;;19.80;97.70;;;;;;5001212;28;19918;-85
2022/08/31 00:16:17;;;;;;;;;;;19.80;97.80;;;;;;5000804;28;19924;-85
2022/08/31 00:18:43;;;;;;;;;;;19.80;97.70;;;;;;4992699;28;19940;-85
2022/08/31 00:21:09;;;;;;;;;;;19.80;97.90;;;;;;5001570;28;19917;-87
2022/08/31 00:23:34;;;;;;;;;;;19.70;98.20;;;;;;4996687;28;20440;-86
2022/08/31 00:26:00;;;;;;;;;;;19.60;98.50;;;;;;5000234;28;19917;-85
2022/08/31 00:28:25;;;;;;;;;;;19.60;98.80;;;;;;4996160;28;19948;-85
2022/08/31 00:30:51;;;;;;;;;;;19.60;99.00;;;;;;5002502;28;19984;-86
2022/08/31 00:33:16;;;;;;;;;;;19.60;99.00;;;;;;5001509;28;19971;-86
2022/08/31 00:35:42;;;;;;;;;;;19.50;99.30;;;;;;5017265;28;19922;-86
2022/08/31 00:38:08;;;;;;;;;;;19.40;99.60;;;;;;4999977;28;19918;-85
2022/08/31 00:40:34;;;;;;;;;;;19.40;99.90;;;;;;4996818;28;19965;-85
2022/08/31 00:43:00;;;;;;;;;;;19.30;99.90;;;;;;4999379;28;20008;-85
2022/08/31 00:45:26;;;;;;;;;;;19.20;99.90;;;;;;4995285;28;19924;-86
2022/08/31 00:47:51;;;;;;;;;;;19.30;99.90;;;;;;4997622;28;19917;-84
2022/08/31 00:50:18;;;;;;;;;;;19.20;99.90;;;;;;5000479;28;20382;-85
2022/08/31 00:52:46;;;;;;;;;;;19.30;99.90;;;;;;4994285;28;19917;-85
2022/08/31 00:55:16;;;;;;;;;;;19.20;99.90;;;;;;4998210;28;20198;-85
2022/08/31 00:57:44;;;;;;;;;;;19.20;99.90;;;;;;4998858;28;20720;-85
2022/08/31 01:00:12;;;;;;;;;;;19.10;99.90;;;;;;5003733;28;19924;-85
2022/08/31 01:02:38;;;;;;;;;;;19.00;99.90;;;;;;5003451;28;20028;-85
2022/08/31 01:05:04;;;;;;;;;;;19.00;99.90;;;;;;5002132;28;20004;-85
2022/08/31 01:07:30;;;;;;;;;;;19.00;99.90;;;;;;4999010;28;19917;-86
2022/08/31 01:09:56;;;;;;;;;;;19.00;99.90;;;;;;5003223;28;20462;-86
2022/08/31 01:12:22;;;;;;;;;;;19.00;99.90;;;;;;5003842;28;20471;-85
2022/08/31 01:14:48;;;;;;;;;;;19.00;99.90;;;;;;5003116;28;20452;-86
2022/08/31 01:17:13;;;;;;;;;;;19.00;99.90;;;;;;4997275;28;19957;-85
2022/08/31 01:19:52;;;;;;;;;;;19.00;99.90;;;;;;5003564;28;19937;-85
2022/08/31 01:22:23;;;;;;;;;;;19.00;99.90;;;;;;5005029;28;19929;-85
2022/08/31 01:24:49;;;;;;;;;;;19.00;99.90;;;;;;5002512;28;19917;-85
2022/08/31 01:27:18;;;;;;;;;;;19.10;99.90;;;;;;5004042;28;19917;-86
2022/08/31 01:29:44;;;;;;;;;;;19.00;99.90;;;;;;5006128;28;19918;-84
2022/08/31 01:32:09;;;;;;;;;;;19.00;99.90;;;;;;5003214;28;19917;-85
2022/08/31 01:34:35;;;;;;;;;;;18.80;99.90;;;;;;5015613;28;19972;-85
2022/08/31 01:37:01;;;;;;;;;;;18.70;99.90;;;;;;5002659;28;19917;-85
2022/08/31 01:39:26;;;;;;;;;;;18.70;99.90;;;;;;5004536;28;19917;-85
2022/08/31 01:41:52;;;;;;;;;;;18.60;99.90;;;;;;5005216;28;20748;-85
2022/08/31 01:44:19;;;;;;;;;;;18.60;99.90;;;;;;5004502;28;20008;-85
2022/08/31 01:46:45;;;;;;;;;;;18.50;99.90;;;;;;5004916;28;19921;-86
2022/08/31 01:49:12;;;;;;;;;;;18.50;99.90;;;;;;5006455;28;19986;-85
2022/08/31 01:51:37;;;;;;;;;;;18.50;99.90;;;;;;5004500;28;20020;-85
2022/08/31 01:54:03;;;;;;;;;;;18.40;99.90;;;;;;5004046;28;19927;-86
2022/08/31 01:56:30;;;;;;;;;;;18.50;99.90;;;;;;5016618;28;19975;-85
2022/08/31 01:58:56;;;;;;;;;;;18.50;99.90;;;;;;5003752;28;19922;-85
2022/08/31 02:01:23;;;;;;;;;;;18.50;99.90;;;;;;5005845;28;19917;-85
2022/08/31 02:03:49;;;;;;;;;;;18.30;99.90;;;;;;5004068;28;19976;-85
2022/08/31 02:06:14;;;;;;;;;;;18.40;99.90;;;;;;5001674;28;19918;-85
2022/08/31 02:08:40;;;;;;;;;;;18.40;99.90;;;;;;5000889;28;20437;-84
2022/08/31 02:11:06;;;;;;;;;;;18.40;99.90;;;;;;5000262;28;19924;-84
2022/08/31 02:13:32;;;;;;;;;;;18.30;99.90;;;;;;4999690;28;19917;-86
2022/08/31 02:15:58;;;;;;;;;;;18.30;99.90;;;;;;4994154;28;19917;-85
2022/08/31 02:18:24;;;;;;;;;;;18.20;99.90;;;;;;4993302;28;19922;-85
2022/08/31 02:20:49;;;;;;;;;;;18.20;99.90;;;;;;4989330;28;19933;-85
2022/08/31 02:23:15;;;;;;;;;;;18.20;99.90;;;;;;4992020;28;19933;-86
2022/08/31 02:25:40;;;;;;;;;;;18.20;99.90;;;;;;5001498;28;19917;-86
2022/08/31 02:28:06;;;;;;;;;;;18.20;99.90;;;;;;5003026;28;19925;-86
2022/08/31 02:30:31;;;;;;;;;;;18.20;99.90;;;;;;4999424;28;20712;-85
2022/08/31 02:32:57;;;;;;;;;;;18.20;99.90;;;;;;5004503;28;19917;-86
2022/08/31 02:35:22;;;;;;;;;;;18.10;99.90;;;;;;5015607;28;19921;-85
2022/08/31 02:37:48;;;;;;;;;;;18.10;99.90;;;;;;5000832;28;20432;-85
2022/08/31 02:40:13;;;;;;;;;;;17.90;99.90;;;;;;4998599;28;20301;-85
2022/08/31 02:42:39;;;;;;;;;;;18.00;99.90;;;;;;5003736;28;19988;-85
2022/08/31 02:45:05;;;;;;;;;;;17.90;99.90;;;;;;5004189;28;19972;-86
2022/08/31 02:47:32;;;;;;;;;;;17.90;99.90;;;;;;5000222;28;19918;-86
2022/08/31 02:50:00;;;;;;;;;;;17.90;99.90;;;;;;5001063;28;20017;-85
2022/08/31 02:52:25;;;;;;;;;;;17.80;99.90;;;;;;4995556;28;20312;-85
2022/08/31 02:54:51;;;;;;;;;;;17.70;99.90;;;;;;4994635;28;20461;-86
2022/08/31 02:57:16;;;;;;;;;;;17.70;99.90;;;;;;5002819;28;19921;-85
2022/08/31 02:59:42;;;;;;;;;;;17.60;99.90;;;;;;4995322;28;20004;-85
2022/08/31 03:02:07;;;;;;;;;;;17.60;99.90;;;;;;4998674;28;19979;-85
2022/08/31 03:04:33;;;;;;;;;;;17.60;99.90;;;;;;4991654;28;20412;-86
2022/08/31 03:06:58;;;;;;;;;;;17.70;99.90;;;;;;4999600;28;19949;-85
2022/08/31 03:09:24;;;;;;;;;;;17.70;99.90;;;;;;4995890;28;20008;-85
2022/08/31 03:11:49;;;;;;;;;;;17.60;99.90;;;;;;4992268;28;19918;-86
2022/08/31 03:14:15;;;;;;;;;;;17.60;99.90;;;;;;4999443;28;19918;-86
2022/08/31 03:16:41;;;;;;;;;;;17.70;99.90;;;;;;5015471;28;19944;-85
2022/08/31 03:19:07;;;;;;;;;;;17.70;99.90;;;;;;5002556;28;19921;-85
2022/08/31 03:21:33;;;;;;;;;;;17.70;99.90;;;;;;4987255;28;19972;-86
2022/08/31 03:23:58;;;;;;;;;;;17.60;99.90;;;;;;4997489;28;20457;-87
2022/08/31 03:26:24;;;;;;;;;;;17.60;99.90;;;;;;4995290;28;20496;-86
2022/08/31 03:28:49;;;;;;;;;;;17.50;99.90;;;;;;5000155;28;19918;-86
2022/08/31 03:31:15;;;;;;;;;;;17.40;99.90;;;;;;4999050;28;20034;-86
2022/08/31 03:33:41;;;;;;;;;;;17.40;99.90;;;;;;5001217;28;20421;-85
2022/08/31 03:36:06;;;;;;;;;;;17.40;99.90;;;;;;5001046;28;19917;-85
2022/08/31 03:38:32;;;;;;;;;;;17.20;99.90;;;;;;5017375;28;19922;-86
2022/08/31 03:40:58;;;;;;;;;;;17.10;99.90;;;;;;5001237;28;19917;-86
2022/08/31 03:43:23;;;;;;;;;;;17.20;99.90;;;;;;4996398;28;20594;-86
2022/08/31 03:45:49;;;;;;;;;;;17.30;99.90;;;;;;5000546;28;20630;-86
2022/08/31 03:48:15;;;;;;;;;;;17.40;99.90;;;;;;4999189;28;20458;-84
2022/08/31 03:50:41;;;;;;;;;;;17.30;99.90;;;;;;4998407;28;20008;-85
2022/08/31 03:53:07;;;;;;;;;;;17.30;99.90;;;;;;4994941;28;19925;-85
2022/08/31 03:55:35;;;;;;;;;;;17.40;99.90;;;;;;4998398;28;19972;-85
2022/08/31 03:58:00;;;;;;;;;;;17.40;99.90;;;;;;5014142;28;20458;-85
2022/08/31 04:00:26;;;;;;;;;;;17.30;99.90;;;;;;4998583;28;20012;-84
2022/08/31 04:02:52;;;;;;;;;;;17.30;99.90;;;;;;4999942;28;19980;-85
2022/08/31 04:05:20;;;;;;;;;;;17.30;99.90;;;;;;4988113;28;19948;-84
2022/08/31 04:07:45;;;;;;;;;;;17.10;99.90;;;;;;4998596;28;19975;-85
2022/08/31 04:10:12;;;;;;;;;;;17.10;99.90;;;;;;4998211;28;19917;-84
2022/08/31 04:12:37;;;;;;;;;;;17.00;99.90;;;;;;5000002;28;19924;-85
2022/08/31 04:15:03;;;;;;;;;;;17.00;99.90;;;;;;5014909;28;19922;-85
2022/08/31 04:17:29;;;;;;;;;;;17.10;99.90;;;;;;4998664;28;19917;-84
2022/08/31 04:19:54;;;;;;;;;;;17.00;99.90;;;;;;4997245;28;20404;-84
2022/08/31 04:22:20;;;;;;;;;;;17.10;99.90;;;;;;4999651;28;19999;-85
2022/08/31 04:24:45;;;;;;;;;;;17.10;99.90;;;;;;4993011;28;20456;-84
2022/08/31 04:27:11;;;;;;;;;;;17.00;99.90;;;;;;5000996;28;20020;-84
2022/08/31 04:29:38;;;;;;;;;;;17.10;99.90;;;;;;4992628;28;19923;-84
2022/08/31 04:32:04;;;;;;;;;;;17.10;99.90;;;;;;4994717;28;19951;-84
2022/08/31 04:34:29;;;;;;;;;;;17.00;99.90;;;;;;4999919;28;20398;-85
2022/08/31 04:36:55;;;;;;;;;;;17.00;99.90;;;;;;5001446;28;19917;-85
2022/08/31 04:39:21;;;;;;;;;;;16.90;99.90;;;;;;5000935;28;20105;-84
2022/08/31 04:41:47;;;;;;;;;;;17.00;99.90;;;;;;4993050;28;19926;-85
2022/08/31 04:44:12;;;;;;;;;;;17.00;99.90;;;;;;4997740;28;19940;-85
2022/08/31 04:46:38;;;;;;;;;;;17.00;99.90;;;;;;5001232;28;19922;-85
2022/08/31 04:49:06;;;;;;;;;;;16.90;99.90;;;;;;4999085;28;19917;-84
2022/08/31 04:51:34;;;;;;;;;;;16.90;99.90;;;;;;5002721;28;19936;-83
2022/08/31 04:54:00;;;;;;;;;;;16.90;99.90;;;;;;4999605;28;20013;-85
2022/08/31 04:56:28;;;;;;;;;;;16.90;99.90;;;;;;4992640;28;19970;-85
2022/08/31 04:58:58;;;;;;;;;;;16.90;99.90;;;;;;5002620;28;20082;-86
2022/08/31 05:01:25;;;;;;;;;;;16.90;99.90;;;;;;5000185;28;20346;-84
2022/08/31 05:03:51;;;;;;;;;;;17.00;99.90;;;;;;4998969;28;19926;-84
2022/08/31 05:06:21;;;;;;;;;;;17.00;99.90;;;;;;4995316;28;20369;-86
2022/08/31 05:08:47;;;;;;;;;;;17.00;99.90;;;;;;4992732;28;20438;-86
2022/08/31 05:11:13;;;;;;;;;;;16.90;99.90;;;;;;4996805;28;19918;-87
2022/08/31 05:13:39;;;;;;;;;;;16.90;99.90;;;;;;4985657;28;19967;-86
2022/08/31 05:16:05;;;;;;;;;;;16.90;99.90;;;;;;4990283;28;20019;-85
2022/08/31 05:18:31;;;;;;;;;;;16.90;99.90;;;;;;5001147;28;19925;-86
2022/08/31 05:21:06;;;;;;;;;;;16.90;99.90;;;;;;5003048;28;20369;-86
2022/08/31 05:23:32;;;;;;;;;;;16.90;99.90;;;;;;4999815;28;19929;-86
2022/08/31 05:25:57;;;;;;;;;;;16.90;99.90;;;;;;4997880;28;19971;-86
2022/08/31 05:28:23;;;;;;;;;;;17.00;99.90;;;;;;4990409;28;19918;-86
2022/08/31 05:30:48;;;;;;;;;;;17.60;99.90;;;;;;5003396;28;20020;-86
2022/08/31 05:33:15;;;;;;;;;;;17.90;99.90;;;;;;5003178;28;19918;-85
2022/08/31 05:35:41;;;;;;;;;;;17.90;99.90;;;;;;5003921;28;20453;-86
2022/08/31 05:38:07;;;;;;;;;;;17.90;99.90;;;;;;5003848;28;19967;-86
2022/08/31 05:40:32;;;;;;;;;;;17.50;99.90;;;;;;5003949;28;19921;-86
2022/08/31 05:42:58;;;;;;;;;;;17.60;99.90;;;;;;4994912;28;19926;-82
2022/08/31 05:45:23;;;;;;;;;;;17.60;99.90;;;;;;4993692;28;20378;-84
2022/08/31 05:47:49;;;;;;;;;;;17.60;99.90;;;;;;4992131;28;19925;-84
2022/08/31 05:50:16;;;;;;;;;;;17.90;99.90;;;;;;4989633;28;19922;-84
2022/08/31 05:52:41;;;;;;;;;;;17.60;99.90;;;;;;4984376;28;19914;-86
2022/08/31 05:55:07;;;;;;;;;;;17.70;99.90;;;;;;4984038;28;20008;-85
2022/08/31 05:57:33;;;;;;;;;;;18.40;99.90;;;;;;4984312;28;19918;-85
2022/08/31 05:59:58;;;;;;;;;;;19.00;99.90;;;;;;4984295;28;19980;-84
2022/08/31 06:02:24;;;;;;;;;;;19.30;99.90;;;;;;4984266;28;19921;-85
2022/08/31 06:04:50;;;;;;;;;;;19.60;99.90;;;;;;4995618;28;19925;-85
2022/08/31 06:07:16;;;;;;;;;;;19.90;99.90;;;;;;5004589;28;19917;-85
2022/08/31 06:09:41;;;;;;;;;;;19.80;99.90;;;;;;5022509;28;19913;-87
2022/08/31 06:12:07;;;;;;;;;;;19.10;99.90;;;;;;5007239;28;19913;-87
2022/08/31 06:14:32;;;;;;;;;;;18.50;99.90;;;;;;5006929;28;19971;-86
2022/08/31 06:16:58;;;;;;;;;;;18.60;99.90;;;;;;5005879;28;19921;-87
2022/08/31 06:19:24;;;;;;;;;;;19.40;99.90;;;;;;5007510;28;19913;-85
2022/08/31 06:21:50;;;;;;;;;;;20.00;99.90;;;;;;4991617;28;19921;-87
2022/08/31 06:24:16;;;;;;;;;;;19.30;99.90;;;;;;4986268;28;19918;-87
2022/08/31 06:26:42;;;;;;;;;;;19.80;99.90;;;;;;4986369;28;19913;-86
2022/08/31 06:29:08;;;;;;;;;;;19.60;99.90;;;;;;4986918;28;19914;-87
2022/08/31 06:31:36;;;;;;;;;;;19.10;99.90;;;;;;4989859;28;19920;-87
2022/08/31 06:34:01;;;;;;;;;;;19.30;99.90;;;;;;4987417;28;20004;-87
2022/08/31 06:36:28;;;;;;;;;;;19.80;99.90;;;;;;5005106;28;20001;-87
2022/08/31 06:38:54;;;;;;;;;;;19.90;99.90;;;;;;4997975;28;20008;-87
2022/08/31 06:41:21;;;;;;;;;;;19.60;99.90;;;;;;5006628;28;19948;-87
2022/08/31 06:43:47;;;;;;;;;;;20.90;99.40;;;;;;5006043;28;19921;-86
2022/08/31 06:46:14;;;;;;;;;;;21.30;97.90;;;;;;5006902;28;19968;-84
2022/08/31 06:48:40;;;;;;;;;;;22.60;95.50;;;;;;5004021;28;20006;-84
2022/08/31 06:51:06;;;;;;;;;;;23.60;93.50;;;;;;4994352;28;20652;-84
2022/08/31 06:53:32;;;;;;;;;;;24.90;89.90;;;;;;4997878;28;19918;-83
2022/08/31 06:56:21;;;;;;;;;;;25.50;87.50;;;;;;4996083;28;19925;-84
2022/08/31 06:58:47;;;;;;;;;;;25.10;85.80;;;;;;5018132;28;19913;-83
2022/08/31 07:01:14;;;;;;;;;;;25.10;84.30;;;;;;5024563;28;19913;-84
2022/08/31 07:03:42;;;;;;;;;;;25.30;81.30;;;;;;5019836;28;20527;-84
2022/08/31 07:06:19;;;;;;;;;;;26.10;83.40;;;;;;5017997;28;20377;-84
2022/08/31 07:08:45;;;;;;;;;;;25.60;81.10;;;;;;5021922;28;19919;-84
2022/08/31 07:11:12;;;;;;;;;;;25.40;80.50;;;;;;5005919;28;19952;-83
2022/08/31 07:13:38;;;;;;;;;;;24.90;79.60;;;;;;5018556;28;19943;-83
2022/08/31 07:16:05;;;;;;;;;;;24.30;81.20;;;;;;5024407;28;19921;-83
2022/08/31 07:18:31;;;;;;;;;;;24.20;83.30;;;;;;5023898;28;20321;-83
2022/08/31 07:21:05;;;;;;;;;;;25.50;79.90;;;;;;5021644;28;19924;-83
2022/08/31 07:23:31;;;;;;;;;;;25.70;77.90;;;;;;5019376;28;20352;-83
2022/08/31 07:25:57;;;;;;;;;;;24.00;81.10;;;;;;5021551;28;19917;-84
2022/08/31 07:28:23;;;;;;;;;;;24.70;80.80;;;;;;5024327;28;19996;-84
2022/08/31 07:30:49;;;;;;;;;;;25.10;78.70;;;;;;5025862;28;19995;-83
2022/08/31 07:33:15;;;;;;;;;;;24.80;79.50;;;;;;5019170;28;20025;-83
2022/08/31 07:35:41;;;;;;;;;;;25.10;78.60;;;;;;5011998;28;19937;-83
2022/08/31 07:43:35;;;;;;;;;;;27.80;68.20;;;;;;5009863;28;19931;-83
2022/08/31 07:46:00;;;;;;;;;;;28.20;67.90;;;;;;5017887;28;19921;-84
2022/08/31 07:48:26;;;;;;;;;;;27.60;68.90;;;;;;5020958;28;20412;-83
2022/08/31 07:50:53;;;;;;;;;;;28.90;66.70;;;;;;5024455;28;19917;-83
2022/08/31 07:53:19;;;;;;;;;;;30.00;64.80;;;;;;5024061;28;19924;-84
2022/08/31 07:55:46;;;;;;;;;;;29.40;63.10;;;;;;5018851;28;19930;-85
2022/08/31 07:58:14;;;;;;;;;;;30.10;63.70;;;;;;5020070;28;19928;-84
2022/08/31 08:00:42;;;;;;;;;;;30.70;61.40;;;;;;5024404;28;19913;-84
2022/08/31 08:03:11;;;;;;;;;;;29.70;60.80;;;;;;4989033;28;20390;-84
2022/08/31 08:05:40;;;;;;;;;;;29.90;60.40;;;;;;4993520;28;19917;-84
2022/08/31 08:08:07;;;;;;;;;;;29.10;62.10;;;;;;5020628;28;20455;-84
2022/08/31 08:10:33;;;;;;;;;;;29.30;61.70;;;;;;5019220;28;20054;-84
2022/08/31 08:13:04;;;;;;;;;;;29.40;61.60;;;;;;4991604;28;19917;-84
2022/08/31 08:15:31;;;;;;;;;;;29.90;60.30;;;;;;5013466;28;19917;-84
2022/08/31 08:17:57;;;;;;;;;;;30.20;60.50;;;;;;5024999;28;20018;-84
2022/08/31 08:20:23;;;;;;;;;;;30.80;58.70;;;;;;4998969;28;19965;-84
2022/08/31 08:22:49;;;;;;;;;;;31.30;58.70;;;;;;4998744;28;19929;-85
2022/08/31 08:25:14;;;;;;;;;;;30.70;57.80;;;;;;5003371;28;19920;-84
2022/08/31 08:27:40;;;;;;;;;;;30.80;57.80;;;;;;4990209;28;19924;-83
2022/08/31 08:30:07;;;;;;;;;;;31.00;58.00;;;;;;5002020;28;19913;-84
2022/08/31 08:32:33;;;;;;;;;;;31.20;57.60;;;;;;5001118;28;20306;-84
2022/08/31 08:34:58;;;;;;;;;;;31.70;57.10;;;;;;5002354;28;19914;-84
2022/08/31 08:37:26;;;;;;;;;;;31.90;55.90;;;;;;5013085;28;19917;-83
2022/08/31 08:39:52;;;;;;;;;;;32.60;55.60;;;;;;5017713;28;19964;-83
2022/08/31 08:42:19;;;;;;;;;;;32.90;53.70;;;;;;5019010;28;19952;-84
2022/08/31 08:44:44;;;;;;;;;;;32.70;54.20;;;;;;5023356;28;19977;-84
2022/08/31 08:47:13;;;;;;;;;;;32.70;53.70;;;;;;5023939;28;20346;-84
2022/08/31 08:49:42;;;;;;;;;;;32.60;55.00;;;;;;5023468;28;19913;-84
2022/08/31 08:52:27;;;;;;;;;;;32.90;53.70;;;;;;5008652;28;20656;-84
2022/08/31 08:54:53;;;;;;;;;;;33.50;53.30;;;;;;5003493;28;19921;-84
2022/08/31 08:57:30;;;;;;;;;;;33.80;53.20;;;;;;4987988;28;20677;-84
2022/08/31 08:59:57;;;;;;;;;;;33.50;53.20;;;;;;4984313;28;19924;-84
2022/08/31 09:02:29;;;;;;;;;;;34.20;52.00;;;;;;4985352;28;19926;-84
2022/08/31 09:05:10;;;;;;;;;;;33.40;52.30;;;;;;5022632;28;20429;-84
2022/08/31 09:07:49;;;;;;;;;;;34.00;53.00;;;;;;5016683;28;19922;-84
2022/08/31 09:10:20;;;;;;;;;;;35.10;50.90;;;;;;5004590;28;20110;-84
2022/08/31 09:12:50;;;;;;;;;;;35.00;50.20;;;;;;5013988;28;20019;-84
2022/08/31 09:15:35;;;;;;;;;;;34.00;51.30;;;;;;5013951;28;19995;-84
2022/08/31 09:18:19;;;;;;;;;;;34.70;50.90;;;;;;5018448;28;19917;-86
2022/08/31 09:21:02;;;;;;;;;;;34.90;50.30;;;;;;5019070;28;20164;-84
2022/08/31 09:23:31;;;;;;;;;;;35.40;49.90;;;;;;5018588;28;19979;-83
2022/08/31 09:25:57;;;;;;;;;;;33.20;50.80;;;;;;5020962;28;20305;-83
2022/08/31 09:28:34;;;;;;;;;;;33.30;51.90;;;;;;5021965;28;19917;-85
2022/08/31 09:31:00;;;;;;;;;;;34.00;50.50;;;;;;5011528;28;20398;-84
2022/08/31 09:33:27;;;;;;;;;;;35.00;49.10;;;;;;5022430;28;19917;-84
2022/08/31 09:36:12;;;;;;;;;;;35.80;48.00;;;;;;5006376;28;19976;-84
2022/08/31 09:38:39;;;;;;;;;;;33.60;48.70;;;;;;5017063;28;20394;-83
2022/08/31 09:41:16;;;;;;;;;;;33.50;49.10;;;;;;5014771;28;19948;-84
2022/08/31 09:43:42;;;;;;;;;;;33.70;49.00;;;;;;5018579;28;20373;-84
2022/08/31 09:46:08;;;;;;;;;;;33.70;50.00;;;;;;4996465;28;20217;-84
2022/08/31 09:48:57;;;;;;;;;;;33.70;49.70;;;;;;5008063;28;20017;-83
2022/08/31 09:51:34;;;;;;;;;;;35.50;48.90;;;;;;5025537;28;19964;-84
2022/08/31 09:56:54;;;;;;;;;;;33.70;50.80;;;;;;5021117;28;19932;-84
2022/08/31 09:59:36;;;;;;;;;;;34.40;48.70;;;;;;5026706;28;19913;-84
2022/08/31 10:02:06;;;;;;;;;;;34.80;46.00;;;;;;5023317;28;19929;-84
2022/08/31 10:04:35;;;;;;;;;;;35.30;44.20;;;;;;5021527;28;20343;-83
2022/08/31 10:07:10;;;;;;;;;;;34.70;44.10;;;;;;5026732;28;19917;-84
2022/08/31 10:09:46;;;;;;;;;;;33.80;44.70;;;;;;5026996;28;19956;-84
2022/08/31 10:12:20;;;;;;;;;;;33.70;46.20;;;;;;5017968;28;20452;-84
2022/08/31 10:15:01;;;;;;;;;;;32.60;46.60;;;;;;5013252;28;19921;-84
2022/08/31 10:17:33;;;;;;;;;;;32.40;46.60;;;;;;5021116;28;19963;-84
2022/08/31 10:20:14;;;;;;;;;;;32.20;46.50;;;;;;5023829;28;19913;-84
2022/08/31 10:22:49;;;;;;;;;;;31.70;44.70;;;;;;5019312;28;20429;-83
2022/08/31 10:25:39;;;;;;;;;;;31.30;47.40;;;;;;5021083;28;20117;-83
2022/08/31 10:28:13;;;;;;;;;;;30.90;48.20;;;;;;5017907;28;20505;-83
2022/08/31 10:30:56;;;;;;;;;;;30.50;46.80;;;;;;5022598;28;20408;-83
2022/08/31 10:35:01;;;;;;;;;;;31.20;47.10;;;;;;5016903;28;19928;-84
2022/08/31 10:36:14;;;;;;;;;;;31.30;47.90;;;;;;5020170;28;19917;-83
2022/08/31 10:38:42;;;;;;;;;;;30.90;47.80;;;;;;5017613;28;19999;-84
2022/08/31 10:41:10;;;;;;;;;;;30.80;47.70;;;;;;5024563;28;20062;-83
2022/08/31 10:43:55;;;;;;;;;;;30.30;49.00;;;;;;5022423;28;19968;-84
2022/08/31 10:46:20;;;;;;;;;;;29.70;50.50;;;;;;5019122;28;20008;-83
2022/08/31 10:48:53;;;;;;;;;;;30.30;49.80;;;;;;5024429;28;20019;-83
2022/08/31 10:51:33;;;;;;;;;;;29.70;50.40;;;;;;5015608;28;19917;-83
2022/08/31 10:54:20;;;;;;;;;;;29.80;51.20;;;;;;5022051;28;19917;-83
2022/08/31 10:56:57;;;;;;;;;;;30.20;48.80;;;;;;5016665;28;20321;-84
2022/08/31 10:59:36;;;;;;;;;;;30.50;49.50;;;;;;5019497;28;19963;-84
2022/08/31 11:02:02;;;;;;;;;;;30.70;50.30;;;;;;5023229;28;20514;-83
2022/08/31 11:04:39;;;;;;;;;;;30.80;50.10;;;;;;5022538;28;19913;-83
2022/08/31 11:07:11;;;;;;;;;;;31.10;49.80;;;;;;5014249;28;19913;-83
2022/08/31 11:09:43;;;;;;;;;;;31.30;50.60;;;;;;5023208;28;19963;-83
2022/08/31 11:12:12;;;;;;;;;;;31.20;51.80;;;;;;5019851;28;19995;-83
2022/08/31 11:14:42;;;;;;;;;;;31.20;49.50;;;;;;5021814;28;19917;-84
2022/08/31 11:17:20;;;;;;;;;;;30.80;50.40;;;;;;5017716;28;19917;-84
2022/08/31 11:19:49;;;;;;;;;;;30.60;50.50;;;;;;5018225;28;19917;-83
2022/08/31 11:22:33;;;;;;;;;;;30.50;51.10;;;;;;5021482;28;19932;-83
2022/08/31 11:24:59;;;;;;;;;;;30.50;50.40;;;;;;5006749;28;19967;-83
2022/08/31 11:27:32;;;;;;;;;;;30.20;50.60;;;;;;4995261;28;20338;-82
2022/08/31 11:30:01;;;;;;;;;;;30.30;51.40;;;;;;4995381;28;19913;-83
2022/08/31 11:32:26;;;;;;;;;;;30.40;51.10;;;;;;5018024;28;19914;-83
2022/08/31 11:34:53;;;;;;;;;;;30.50;51.50;;;;;;5005006;28;19917;-83
2022/08/31 11:37:37;;;;;;;;;;;30.70;51.50;;;;;;5005583;28;19921;-83
2022/08/31 11:40:08;;;;;;;;;;;31.00;51.10;;;;;;5006070;28;19964;-84
2022/08/31 11:42:36;;;;;;;;;;;30.80;50.90;;;;;;5006200;28;19925;-84
2022/08/31 11:45:05;;;;;;;;;;;30.50;50.00;;;;;;5006315;28;19964;-84
2022/08/31 11:47:42;;;;;;;;;;;30.50;49.80;;;;;;5003454;28;20009;-84
2022/08/31 11:50:07;;;;;;;;;;;30.70;50.60;;;;;;5013006;28;19917;-83
2022/08/31 11:52:37;;;;;;;;;;;30.60;50.30;;;;;;5021818;28;20459;-83
2022/08/31 11:55:21;;;;;;;;;;;30.70;50.70;;;;;;5019505;28;20294;-84
2022/08/31 11:58:04;;;;;;;;;;;30.80;50.70;;;;;;5022392;28;19921;-84
2022/08/31 12:00:50;;;;;;;;;;;30.70;50.90;;;;;;5021357;28;19917;-83
2022/08/31 12:03:37;;;;;;;;;;;30.80;50.80;;;;;;5016903;28;20550;-84
2022/08/31 12:06:03;;;;;;;;;;;30.80;50.70;;;;;;5023812;28;19917;-84
2022/08/31 12:08:31;;;;;;;;;;;31.00;51.40;;;;;;5023729;28;19919;-84
2022/08/31 12:10:59;;;;;;;;;;;31.20;51.30;;;;;;5024366;28;19920;-84
2022/08/31 12:13:25;;;;;;;;;;;31.20;50.30;;;;;;5014789;28;19960;-84
2022/08/31 12:15:59;;;;;;;;;;;31.30;50.20;;;;;;5021753;28;19944;-84
2022/08/31 12:18:34;;;;;;;;;;;31.50;50.60;;;;;;5023335;28;20247;-83
2022/08/31 12:24:07;;;;;;;;;;;31.60;50.30;;;;;;5022907;28;19974;-83
2022/08/31 12:26:32;;;;;;;;;;;31.60;49.80;;;;;;5020174;28;20382;-84
2022/08/31 12:29:30;;;;;;;;;;;31.60;50.40;;;;;;5021665;28;19917;-83
2022/08/31 12:32:15;;;;;;;;;;;31.50;49.60;;;;;;4975485;28;19925;-84
2022/08/31 12:34:49;;;;;;;;;;;31.20;49.40;;;;;;4962323;28;19918;-83
2022/08/31 12:37:25;;;;;;;;;;;31.20;50.30;;;;;;4980843;28;20546;-84
2022/08/31 12:40:06;;;;;;;;;;;31.10;50.50;;;;;;4977780;28;19989;-84
2022/08/31 12:42:32;;;;;;;;;;;31.30;51.10;;;;;;4981400;28;19929;-84
2022/08/31 12:44:58;;;;;;;;;;;31.30;51.30;;;;;;4981520;28;19953;-83
2022/08/31 12:47:36;;;;;;;;;;;31.30;50.70;;;;;;4976083;28;19918;-83
2022/08/31 12:50:20;;;;;;;;;;;31.10;51.10;;;;;;4975368;28;19925;-83
2022/08/31 12:52:51;;;;;;;;;;;31.10;50.40;;;;;;4978670;28;19921;-83
2022/08/31 12:55:24;;;;;;;;;;;31.00;50.30;;;;;;4976984;28;19926;-84
2022/08/31 12:58:01;;;;;;;;;;;31.00;50.50;;;;;;4978227;28;20688;-84
2022/08/31 13:00:28;;;;;;;;;;;31.20;50.70;;;;;;4979720;28;19925;-84
2022/08/31 13:02:56;;;;;;;;;;;31.20;50.70;;;;;;4964679;28;19937;-83
2022/08/31 13:05:22;;;;;;;;;;;31.20;50.40;;;;;;4981193;28;19953;-84
2022/08/31 13:07:48;;;;;;;;;;;31.50;50.20;;;;;;5002239;28;20453;-84
2022/08/31 13:10:22;;;;;;;;;;;31.50;51.30;;;;;;5022698;28;20152;-84
2022/08/31 13:12:49;;;;;;;;;;;31.40;49.20;;;;;;5022880;28;19920;-84
2022/08/31 13:15:25;;;;;;;;;;;31.60;49.80;;;;;;5021730;28;19913;-83
2022/08/31 13:17:52;;;;;;;;;;;31.70;50.30;;;;;;5021022;28;20006;-83
2022/08/31 13:20:18;;;;;;;;;;;31.70;50.60;;;;;;5022876;28;19932;-84
2022/08/31 13:22:47;;;;;;;;;;;31.90;50.60;;;;;;5022989;28;19925;-83
2022/08/31 13:25:15;;;;;;;;;;;31.80;50.30;;;;;;5021016;28;19987;-84
2022/08/31 13:27:51;;;;;;;;;;;31.80;49.10;;;;;;5022976;28;19917;-83
2022/08/31 13:30:18;;;;;;;;;;;31.70;50.30;;;;;;5022145;28;20393;-83
2022/08/31 13:32:48;;;;;;;;;;;31.60;50.10;;;;;;5023101;28;19917;-83
2022/08/31 13:35:18;;;;;;;;;;;31.60;50.60;;;;;;5015006;28;20405;-85
2022/08/31 13:38:06;;;;;;;;;;;31.40;50.20;;;;;;5022749;28;19917;-83
2022/08/31 13:40:38;;;;;;;;;;;31.20;49.50;;;;;;5022800;28;19913;-83
2022/08/31 13:43:07;;;;;;;;;;;31.20;50.40;;;;;;5021968;28;20624;-83
2022/08/31 13:45:37;;;;;;;;;;;31.50;51.40;;;;;;5022148;28;19968;-84
2022/08/31 13:48:03;;;;;;;;;;;31.30;49.50;;;;;;5023089;28;19965;-83
2022/08/31 13:50:32;;;;;;;;;;;31.40;50.10;;;;;;5021111;28;20473;-84
2022/08/31 13:52:58;;;;;;;;;;;31.50;51.30;;;;;;5021802;28;20385;-84
2022/08/31 13:55:33;;;;;;;;;;;31.60;50.90;;;;;;5020422;28;19929;-84
2022/08/31 13:58:00;;;;;;;;;;;31.40;49.50;;;;;;5022881;28;20004;-84
2022/08/31 14:00:26;;;;;;;;;;;31.30;50.30;;;;;;5022508;28;19912;-84
2022/08/31 14:02:57;;;;;;;;;;;31.40;51.40;;;;;;5021793;28;19970;-84
2022/08/31 14:05:35;;;;;;;;;;;31.30;50.10;;;;;;5019101;28;19970;-83
2022/08/31 14:08:01;;;;;;;;;;;30.90;49.70;;;;;;5033511;28;19917;-83
2022/08/31 14:10:31;;;;;;;;;;;30.60;49.80;;;;;;5023274;28;19935;-83
2022/08/31 14:13:16;;;;;;;;;;;30.70;50.80;;;;;;5013460;28;19917;-83
2022/08/31 14:15:49;;;;;;;;;;;30.50;51.10;;;;;;5020689;28;19971;-84
2022/08/31 14:18:19;;;;;;;;;;;30.60;51.50;;;;;;5013708;28;20012;-83
2022/08/31 14:21:12;;;;;;;;;;;30.60;50.90;;;;;;5001640;28;20498;-83
2022/08/31 14:23:39;;;;;;;;;;;30.30;49.00;;;;;;5019349;28;20440;-84
2022/08/31 14:26:11;;;;;;;;;;;30.00;49.20;;;;;;5011958;28;19984;-83
2022/08/31 14:28:40;;;;;;;;;;;30.00;50.00;;;;;;4996294;28;19953;-85
2022/08/31 14:31:26;;;;;;;;;;;29.90;49.30;;;;;;5006968;28;19920;-84
2022/08/31 14:34:02;;;;;;;;;;;29.80;49.10;;;;;;5015817;28;20008;-84
2022/08/31 14:36:31;;;;;;;;;;;29.80;49.30;;;;;;5019189;28;19992;-85
2022/08/31 14:38:57;;;;;;;;;;;29.60;49.30;;;;;;5020366;28;19969;-83
2022/08/31 14:41:27;;;;;;;;;;;29.70;49.90;;;;;;5006315;28;19917;-85